Time;durP1;ratioP1;P1;durP2;ratioP2;P2;SDS_P1;SDS_P2;PMS_P1;PMS_P2;Temp;Humidity;BMP_temperature;BMP_pressure;BME280_temperature;BME280_humidity;BME280_pressure;Samples;Min_cycle;Max_cycle;Signal;HPM_P1;HPM_P2
2023/10/17 00:01:44;;;;;;;38.90;36.13;;;10.70;99.90;;;;;;4967549;28;20043;-69
2023/10/17 00:04:32;;;;;;;45.08;42.63;;;10.70;99.90;;;;;;4974579;28;20043;-69
2023/10/17 00:07:02;;;;;;;51.05;47.95;;;10.60;99.90;;;;;;4968402;28;20042;-69
2023/10/17 00:09:36;;;;;;;45.63;43.13;;;10.50;99.90;;;;;;4965987;28;20039;-69
2023/10/17 00:17:21;;;;;;;;;;;10.50;99.90;;;;;;4974239;28;20050;-69
2023/10/17 00:19:51;;;;;;;48.83;46.28;;;10.50;99.90;;;;;;4975078;28;19922;-69
2023/10/17 00:22:23;;;;;;;47.72;45.13;;;10.60;99.90;;;;;;4973978;28;20031;-69
2023/10/17 00:24:57;;;;;;;50.55;47.85;;;10.40;99.90;;;;;;4975331;28;20070;-72
2023/10/17 00:27:23;;;;;;;55.15;52.33;;;10.40;99.90;;;;;;4966717;28;20031;-72
2023/10/17 00:29:49;;;;;;;58.35;55.30;;;10.40;99.90;;;;;;4974241;28;20031;-72
2023/10/17 00:32:15;;;;;;;56.83;53.83;;;10.40;99.90;;;;;;4974724;28;20046;-72
2023/10/17 00:34:43;;;;;;;52.67;49.47;;;10.30;99.90;;;;;;4970138;28;20400;-72
2023/10/17 00:37:14;;;;;;;31.55;29.83;;;10.30;99.90;;;;;;4972172;28;20476;-71
2023/10/17 00:39:40;;;;;;;49.45;46.65;;;10.20;99.90;;;;;;4974211;28;20620;-72
2023/10/17 00:44:40;;;;;;;90.55;85.75;;;10.30;99.90;;;;;;4980381;28;20035;-72
2023/10/17 00:47:18;;;;;;;84.07;79.72;;;10.30;99.90;;;;;;4968719;28;20538;-72
2023/10/17 00:49:44;;;;;;;70.15;66.45;;;10.30;99.90;;;;;;4954107;28;20037;-72
2023/10/17 00:52:37;;;;;;;47.38;44.95;;;10.40;99.90;;;;;;4965263;28;20101;-72
2023/10/17 00:55:04;;;;;;;35.08;33.17;;;10.20;99.90;;;;;;4985914;28;20154;-72
2023/10/17 00:57:30;;;;;;;33.53;31.55;;;10.20;99.90;;;;;;4965524;28;20111;-72
2023/10/17 00:59:56;;;;;;;40.13;37.95;;;10.30;99.90;;;;;;4969807;28;20036;-72
2023/10/17 01:02:24;;;;;;;34.75;32.80;;;10.30;99.90;;;;;;4970924;28;20034;-72
2023/10/17 01:04:56;;;;;;;34.22;32.13;;;10.30;99.90;;;;;;4973653;28;20031;-72
2023/10/17 01:07:34;;;;;;;32.08;30.08;;;10.20;99.90;;;;;;4961084;28;20038;-72
2023/10/17 01:10:13;;;;;;;33.22;31.45;;;10.30;99.90;;;;;;4955175;28;20384;-72
2023/10/17 01:15:27;;;;;;;35.53;33.53;;;10.20;99.90;;;;;;4981335;28;20061;-72
2023/10/17 01:17:55;;;;;;;37.17;35.17;;;10.30;99.90;;;;;;4965574;28;20043;-72
2023/10/17 01:20:21;;;;;;;38.95;36.95;;;10.30;99.90;;;;;;4970665;28;20050;-72
2023/10/17 01:22:48;;;;;;;39.10;36.55;;;10.30;99.90;;;;;;4974060;28;20038;-72
2023/10/17 01:25:27;;;;;;;32.88;31.08;;;10.20;99.90;;;;;;4971786;28;20027;-72
2023/10/17 01:27:54;;;;;;;36.63;34.70;;;10.30;99.90;;;;;;4971871;28;20034;-70
2023/10/17 01:30:21;;;;;;;37.17;35.05;;;10.30;99.90;;;;;;4971213;28;20376;-69
2023/10/17 01:32:51;;;;;;;38.22;36.22;;;10.20;99.90;;;;;;4968839;28;20038;-69
2023/10/17 01:35:19;;;;;;;44.43;41.87;;;10.10;99.90;;;;;;4972252;28;20053;-69
2023/10/17 01:37:48;;;;;;;67.05;63.45;;;10.20;99.90;;;;;;4961243;28;20046;-69
2023/10/17 01:40:23;;;;;;;46.08;43.65;;;10.30;99.90;;;;;;4959591;28;20053;-69
2023/10/17 01:42:52;;;;;;;62.17;58.88;;;10.20;99.90;;;;;;4965097;28;20030;-69
2023/10/17 01:45:30;;;;;;;50.47;47.60;;;10.10;99.90;;;;;;4968297;28;20045;-69
2023/10/17 01:47:56;;;;;;;35.35;33.15;;;10.10;99.90;;;;;;4963342;28;20042;-69
2023/10/17 01:50:24;;;;;;;36.30;34.40;;;10.10;99.90;;;;;;4960183;28;20054;-69
2023/10/17 01:52:53;;;;;;;46.78;43.47;;;10.10;99.90;;;;;;4973536;28;20070;-69
2023/10/17 01:55:26;;;;;;;79.15;74.95;;;10.00;99.90;;;;;;4971041;28;20047;-69
2023/10/17 01:57:54;;;;;;;45.78;43.17;;;10.00;99.90;;;;;;4973941;28;20369;-69
2023/10/17 02:00:27;;;;;;;35.42;33.42;;;9.90;99.90;;;;;;4957783;28;20507;-70
2023/10/17 02:02:55;;;;;;;34.03;32.15;;;10.00;99.90;;;;;;4973260;28;20050;-69
2023/10/17 02:05:24;;;;;;;32.30;30.55;;;10.00;99.90;;;;;;4972570;28;20058;-69
2023/10/17 02:07:50;;;;;;;37.47;35.55;;;9.90;99.90;;;;;;4969328;28;20031;-69
2023/10/17 02:10:21;;;;;;;35.30;33.40;;;10.00;99.90;;;;;;4955197;28;20042;-69
2023/10/17 02:12:48;;;;;;;42.25;40.08;;;10.00;99.90;;;;;;4972551;28;20046;-68
2023/10/17 02:15:23;;;;;;;32.85;31.05;;;10.10;99.90;;;;;;4968018;28;20378;-69
2023/10/17 02:17:53;;;;;;;33.03;30.75;;;10.20;99.90;;;;;;4954117;28;20047;-69
2023/10/17 02:22:55;;;;;;;35.95;34.08;;;10.00;99.90;;;;;;4962936;28;20519;-69
2023/10/17 02:25:21;;;;;;;46.97;44.35;;;10.00;99.90;;;;;;4971863;28;20039;-69
2023/10/17 02:27:48;;;;;;;54.33;51.40;;;10.10;99.90;;;;;;4971839;28;20581;-69
2023/10/17 02:30:15;;;;;;;38.25;36.15;;;10.00;99.90;;;;;;4972332;28;20468;-69
2023/10/17 02:32:46;;;;;;;37.63;35.45;;;9.90;99.90;;;;;;4967077;28;20031;-69
2023/10/17 02:35:14;;;;;;;51.08;48.33;;;9.80;99.90;;;;;;4972812;28;20047;-69
2023/10/17 02:37:44;;;;;;;54.05;51.13;;;9.80;99.90;;;;;;4963586;28;20039;-69
2023/10/17 02:40:20;;;;;;;56.42;53.50;;;9.90;99.90;;;;;;4971636;28;20484;-69
2023/10/17 02:42:47;;;;;;;65.32;61.83;;;9.80;99.90;;;;;;4971218;28;20058;-70
2023/10/17 02:45:14;;;;;;;35.03;33.17;;;9.80;99.90;;;;;;4960689;28;20047;-69
2023/10/17 02:47:44;;;;;;;31.13;29.42;;;9.80;99.90;;;;;;4969030;28;20456;-69
2023/10/17 02:52:55;;;;;;;97.22;92.13;;;9.90;99.90;;;;;;4961356;28;20043;-69
2023/10/17 02:55:24;;;;;;;61.08;57.85;;;10.00;99.90;;;;;;4970148;28;20039;-69
2023/10/17 02:57:54;;;;;;;116.15;110.28;;;10.00;99.90;;;;;;4973052;28;20035;-69
2023/10/17 03:00:22;;;;;;;42.08;39.83;;;9.90;99.90;;;;;;4974991;28;20404;-70
2023/10/17 03:02:50;;;;;;;32.08;30.05;;;9.90;99.90;;;;;;4976335;28;20053;-69
2023/10/17 03:05:18;;;;;;;32.45;30.65;;;9.90;99.90;;;;;;4974815;28;20042;-70
2023/10/17 03:07:49;;;;;;;28.98;27.35;;;9.80;99.90;;;;;;4974978;28;20047;-69
2023/10/17 03:10:20;;;;;;;;;;;9.80;99.90;;;;;;4976804;28;20039;-69
2023/10/17 03:12:55;;;;;;;33.47;31.52;;;9.80;99.90;;;;;;4977072;28;19921;-69
2023/10/17 03:15:29;;;;;;;27.42;25.83;;;9.90;99.90;;;;;;4975389;28;20435;-69
2023/10/17 03:18:00;;;;;;;50.53;47.70;;;9.80;99.90;;;;;;4975483;28;20035;-69
2023/10/17 03:20:36;;;;;;;44.45;41.78;;;9.70;99.90;;;;;;4972261;28;20059;-69
2023/10/17 03:23:04;;;;;;;40.58;38.45;;;9.60;99.90;;;;;;4970746;28;20033;-68
2023/10/17 03:25:37;;;;;;;31.23;29.45;;;9.70;99.90;;;;;;4973814;28;20050;-68
2023/10/17 03:28:13;;;;;;;34.60;32.72;;;9.70;99.90;;;;;;4957702;28;20050;-69
2023/10/17 03:30:39;;;;;;;25.85;24.40;;;9.70;99.90;;;;;;4960610;28;20046;-68
2023/10/17 03:33:08;;;;;;;26.23;24.63;;;9.70;99.90;;;;;;4976357;28;20039;-68
2023/10/17 03:35:45;;;;;;;27.85;26.25;;;9.80;99.90;;;;;;4972197;28;20051;-68
2023/10/17 03:38:14;;;;;;;33.47;31.23;;;9.80;99.90;;;;;;4963662;28;20035;-69
2023/10/17 03:40:41;;;;;;;25.33;23.80;;;9.80;99.90;;;;;;4971464;28;20051;-69
2023/10/17 03:43:13;;;;;;;26.02;24.55;;;9.80;99.90;;;;;;4957206;29;20031;-69
2023/10/17 03:45:58;;;;;;;49.83;46.47;;;9.80;99.90;;;;;;4956074;28;20043;-68
2023/10/17 03:48:28;;;;;;;34.20;32.45;;;9.70;99.90;;;;;;4957228;28;20055;-71
2023/10/17 03:51:21;;;;;;;30.48;28.75;;;9.80;99.90;;;;;;4960715;28;20050;-71
2023/10/17 03:53:47;;;;;;;31.23;29.27;;;9.80;99.90;;;;;;4976179;28;20043;-72
2023/10/17 03:56:23;;;;;;;25.92;24.30;;;9.80;99.90;;;;;;4976224;28;20103;-71
2023/10/17 04:01:18;;;;;;;48.22;45.58;;;9.70;99.90;;;;;;4978533;28;20043;-72
2023/10/17 04:03:46;;;;;;;28.95;27.20;;;9.80;99.90;;;;;;4975276;28;20046;-72
2023/10/17 04:08:40;;;;;;;48.22;45.70;;;9.80;99.90;;;;;;4962067;28;20035;-72
2023/10/17 04:13:49;;;;;;;27.15;25.63;;;9.70;99.90;;;;;;4981717;28;20053;-72
2023/10/17 04:16:22;;;;;;;48.38;45.97;;;9.80;99.90;;;;;;4966407;28;20051;-72
2023/10/17 04:18:55;;;;;;;37.70;35.25;;;9.80;99.90;;;;;;4956369;28;20039;-72
2023/10/17 04:21:31;;;;;;;30.67;28.58;;;9.80;99.90;;;;;;4965294;28;20059;-72
2023/10/17 04:24:07;;;;;;;35.30;33.22;;;9.70;99.90;;;;;;4964479;28;20041;-72
2023/10/17 04:26:42;;;;;;;32.80;31.05;;;9.70;99.90;;;;;;4967163;28;20488;-72
2023/10/17 04:29:13;;;;;;;43.17;40.95;;;9.70;99.90;;;;;;4961956;28;20226;-72
2023/10/17 04:31:39;;;;;;;30.30;28.52;;;9.70;99.90;;;;;;4967577;28;20522;-71
2023/10/17 04:34:06;;;;;;;31.80;29.63;;;9.60;99.90;;;;;;4975460;28;20034;-72
2023/10/17 04:36:38;;;;;;;52.35;49.53;;;9.70;99.90;;;;;;4964052;28;20538;-72
2023/10/17 04:44:16;;;;;;;47.05;44.40;;;9.70;99.90;;;;;;4960650;28;20031;-71
2023/10/17 04:47:30;;;;;;;34.17;32.30;;;9.70;99.90;;;;;;4955618;28;20047;-72
2023/10/17 04:49:32;;;;;;;29.77;27.92;;;9.70;99.90;;;;;;4951747;28;20047;-72
2023/10/17 04:57:06;;;;;;;28.83;27.30;;;9.60;99.90;;;;;;4965843;28;20464;-71
2023/10/17 06:19:15;;;;;;;34.00;32.10;;;9.70;99.90;;;;;;4972482;28;20431;-70
2023/10/17 06:34:24;;;;;;;52.58;49.55;;;9.70;99.90;;;;;;4977602;28;20038;-69
2023/10/17 06:36:50;;;;;;;25.20;23.38;;;9.70;99.90;;;;;;4967986;28;20369;-69
2023/10/17 06:39:18;;;;;;;58.50;55.20;;;9.70;99.90;;;;;;4965804;28;20032;-70
2023/10/17 06:41:47;;;;;;;47.22;44.47;;;9.70;99.90;;;;;;4954698;28;20519;-70
2023/10/17 06:44:23;;;;;;;44.83;42.35;;;9.80;99.90;;;;;;4970608;28;20400;-70
2023/10/17 06:46:55;;;;;;;27.98;26.20;;;9.70;99.90;;;;;;4972634;28;20043;-70
2023/10/17 06:54:46;;;;;;;27.48;25.55;;;9.80;99.90;;;;;;4935942;29;20373;-70
2023/10/17 06:57:23;;;;;;;32.80;30.55;;;9.80;99.90;;;;;;4951270;29;20055;-71
2023/10/17 06:59:54;;;;;;;29.00;27.27;;;9.80;99.90;;;;;;4950545;29;20047;-71
2023/10/17 07:02:31;;;;;;;21.95;20.55;;;9.80;99.90;;;;;;4933878;28;20524;-71
2023/10/17 07:05:00;;;;;;;27.70;26.10;;;9.80;99.90;;;;;;4946704;29;20035;-70
2023/10/17 07:07:39;;;;;;;19.42;18.27;;;9.80;99.90;;;;;;4950675;29;20048;-71
2023/10/17 07:10:18;;;;;;;24.08;22.58;;;9.80;99.90;;;;;;4951632;29;20092;-71
2023/10/17 07:12:50;;;;;;;23.02;21.73;;;9.80;99.90;;;;;;4951161;29;20051;-71
2023/10/17 07:15:19;;;;;;;58.67;55.22;;;9.90;99.90;;;;;;4950570;28;20062;-72
2023/10/17 07:17:54;;;;;;;20.20;18.80;;;9.90;99.90;;;;;;4951607;29;20057;-71
2023/10/17 07:23:27;;;;;;;;;;;10.00;99.90;;;;;;4914465;29;20052;-71
2023/10/17 07:25:56;;;;;;;85.85;81.50;;;10.00;99.90;;;;;;4918589;29;19918;-71
2023/10/17 07:28:22;;;;;;;80.25;76.18;;;10.00;99.90;;;;;;4924960;29;20517;-71
2023/10/17 07:30:57;;;;;;;20.48;19.00;;;10.00;99.90;;;;;;4887765;29;20045;-71
2023/10/17 07:33:27;;;;;;;27.63;25.92;;;10.10;99.90;;;;;;4874965;29;20518;-71
2023/10/17 07:35:58;;;;;;;25.25;23.75;;;10.10;99.90;;;;;;4875817;29;20045;-71
2023/10/17 07:38:27;;;;;;;44.00;41.50;;;10.10;99.90;;;;;;4876466;29;20076;-70
2023/10/17 07:40:58;;;;;;;50.63;48.00;;;10.10;99.90;;;;;;4878372;29;20045;-70
2023/10/17 07:43:24;;;;;;;21.50;19.75;;;10.10;99.90;;;;;;4878218;29;20037;-71
2023/10/17 07:46:00;;;;;;;23.73;22.33;;;10.20;99.90;;;;;;4876439;29;20037;-70
2023/10/17 07:48:26;;;;;;;46.08;43.65;;;10.20;99.90;;;;;;4876346;29;20056;-70
2023/10/17 07:50:57;;;;;;;30.67;28.67;;;10.20;99.90;;;;;;4877870;29;20450;-69
2023/10/17 07:53:23;;;;;;;20.88;19.45;;;10.20;99.90;;;;;;4879153;29;20033;-70
2023/10/17 07:55:52;;;;;;;27.23;25.23;;;10.20;99.90;;;;;;4878576;29;20041;-70
2023/10/17 07:58:41;;;;;;;20.20;18.90;;;10.30;99.90;;;;;;4929132;29;20040;-70
2023/10/17 08:01:08;;;;;;;31.50;29.27;;;10.30;99.90;;;;;;4935562;28;20481;-69
2023/10/17 08:03:40;;;;;;;20.48;19.08;;;10.30;99.90;;;;;;4940676;29;20032;-70
2023/10/17 08:06:12;;;;;;;34.17;32.38;;;10.40;99.90;;;;;;4956388;29;20030;-70
2023/10/17 08:08:44;;;;;;;23.67;22.27;;;10.40;99.90;;;;;;4955587;29;20384;-70
2023/10/17 08:11:31;;;;;;;33.72;31.88;;;10.40;99.90;;;;;;4937916;29;20504;-70
2023/10/17 08:14:01;;;;;;;20.65;19.00;;;10.40;99.90;;;;;;4948631;29;20821;-70
2023/10/17 08:16:32;;;;;;;25.27;23.58;;;10.40;99.90;;;;;;4951194;28;20066;-70
2023/10/17 08:19:12;;;;;;;39.92;37.65;;;10.40;99.90;;;;;;4940846;29;20046;-70
2023/10/17 08:24:26;;;;;;;39.70;37.47;;;10.50;99.90;;;;;;4959574;28;20030;-70
2023/10/17 08:27:13;;;;;;;21.17;19.58;;;10.50;99.90;;;;;;4949576;29;20031;-70
2023/10/17 08:29:42;;;;;;;21.67;20.27;;;10.60;99.90;;;;;;4956156;28;20355;-71
2023/10/17 08:35:08;;;;;;;25.55;23.85;;;10.70;99.90;;;;;;4935318;29;20039;-71
2023/10/17 08:37:43;;;;;;;36.45;33.35;;;10.80;99.90;;;;;;4953530;29;20040;-70
2023/10/17 08:43:20;;;;;;;42.05;39.35;;;11.00;99.90;;;;;;4944165;29;20463;-71
2023/10/17 08:45:47;;;;;;;25.75;24.05;;;11.10;99.90;;;;;;4948110;29;20063;-71
2023/10/17 08:48:14;;;;;;;27.50;25.88;;;11.10;99.90;;;;;;4947820;29;20058;-71
2023/10/17 08:50:40;;;;;;;29.60;27.58;;;11.20;99.90;;;;;;4950252;28;20046;-71
2023/10/17 08:53:13;;;;;;;31.45;29.45;;;11.20;99.90;;;;;;4951739;29;20047;-72
2023/10/17 08:55:42;;;;;;;30.88;29.08;;;11.30;99.90;;;;;;4948851;29;20079;-72
2023/10/17 08:58:08;;;;;;;25.08;23.27;;;11.40;99.90;;;;;;4945794;29;20040;-71
2023/10/17 09:03:41;;;;;;;33.17;31.15;;;11.50;99.90;;;;;;4968532;28;20042;-72
2023/10/17 09:11:31;;;;;;;34.47;32.63;;;11.50;99.90;;;;;;4964329;28;20054;-72
2023/10/17 09:14:24;;;;;;;31.55;29.55;;;11.60;99.90;;;;;;4955752;28;20047;-71
2023/10/17 09:17:28;;;;;;;26.42;24.58;;;11.80;99.90;;;;;;4967870;28;20061;-71
2023/10/17 09:19:57;;;;;;;27.75;25.80;;;11.90;99.90;;;;;;4955637;28;20043;-72
2023/10/17 09:22:26;;;;;;;28.40;26.33;;;12.10;99.90;;;;;;4955155;28;20082;-72
2023/10/17 09:24:53;;;;;;;29.48;27.38;;;12.10;99.90;;;;;;4955148;28;20039;-71
2023/10/17 09:27:19;;;;;;;30.65;28.45;;;12.20;99.90;;;;;;4954738;28;20420;-71
2023/10/17 09:29:50;;;;;;;32.42;30.38;;;12.30;99.90;;;;;;4972484;28;20629;-71
2023/10/17 09:32:35;;;;;;;30.52;28.63;;;12.40;99.90;;;;;;4973715;28;20043;-71
2023/10/17 09:35:15;;;;;;;35.53;33.22;;;12.40;99.90;;;;;;4964953;28;20027;-71
2023/10/17 09:37:51;;;;;;;34.33;32.33;;;12.50;99.90;;;;;;4966662;28;20401;-71
2023/10/17 09:40:26;;;;;;;50.00;46.95;;;12.50;99.90;;;;;;4971898;28;20035;-71
2023/10/17 09:42:53;;;;;;;116.68;110.60;;;12.60;99.90;;;;;;4973055;28;20054;-71
2023/10/17 09:45:20;;;;;;;192.82;182.98;;;12.60;99.90;;;;;;4971933;28;20115;-71
2023/10/17 09:47:51;;;;;;;130.60;123.78;;;12.60;99.90;;;;;;4965265;28;20039;-70
2023/10/17 09:50:18;;;;;;;;;;;12.60;99.90;;;;;;4962085;28;20035;-71
2023/10/17 09:52:45;;;;;;;34.05;31.70;;;12.60;99.90;;;;;;4974748;28;20445;-70
2023/10/17 09:55:14;;;;;;;29.08;27.25;;;12.70;99.90;;;;;;4967844;28;20074;-71
2023/10/17 09:57:41;;;;;;;35.78;33.58;;;12.90;99.90;;;;;;4964632;28;20042;-71
2023/10/17 10:00:29;;;;;;;38.78;36.60;;;13.10;99.90;;;;;;4963812;28;20035;-70
2023/10/17 10:02:55;;;;;;;51.88;48.70;;;13.30;99.90;;;;;;4982169;28;20488;-71
2023/10/17 10:05:28;;;;;;;58.83;55.50;;;13.50;99.90;;;;;;4969045;28;20387;-71
2023/10/17 10:07:55;;;;;;;53.15;49.55;;;13.70;99.90;;;;;;4954228;28;20043;-71
2023/10/17 10:10:44;;;;;;;59.42;56.03;;;13.80;99.90;;;;;;4960905;28;20063;-71
2023/10/17 10:13:13;;;;;;;61.78;58.45;;;13.90;99.90;;;;;;4973937;28;20054;-72
2023/10/17 10:15:51;;;;;;;65.18;61.67;;;13.90;99.90;;;;;;4967250;28;20488;-71
2023/10/17 10:18:35;;;;;;;51.58;48.40;;;14.10;99.90;;;;;;4954370;29;20035;-71
2023/10/17 10:21:07;;;;;;;51.25;48.10;;;14.10;99.90;;;;;;4960569;28;20034;-69
2023/10/17 10:23:34;;;;;;;57.45;54.00;;;14.20;99.90;;;;;;4953937;28;20051;-70
2023/10/17 10:26:10;;;;;;;61.22;57.88;;;14.30;99.90;;;;;;4953682;28;20042;-70
2023/10/17 10:28:42;;;;;;;61.90;58.33;;;14.40;99.90;;;;;;4953934;28;20043;-70
2023/10/17 10:31:24;;;;;;;66.93;63.33;;;14.50;99.90;;;;;;4960311;28;20069;-70
2023/10/17 10:33:54;;;;;;;65.53;62.03;;;14.60;99.90;;;;;;4954176;28;20051;-69
2023/10/17 10:36:22;;;;;;;62.10;58.83;;;14.80;99.90;;;;;;4962485;28;20038;-69
2023/10/17 10:38:48;;;;;;;73.88;69.88;;;14.90;99.90;;;;;;4972784;28;20054;-69
2023/10/17 10:41:15;;;;;;;69.95;66.18;;;15.00;99.90;;;;;;4962603;28;20038;-69
2023/10/17 10:43:44;;;;;;;82.55;78.25;;;15.10;99.90;;;;;;4972373;28;20506;-70
2023/10/17 10:46:11;;;;;;;75.30;71.05;;;15.20;99.90;;;;;;4971995;28;20091;-69
2023/10/17 10:48:45;;;;;;;82.85;78.47;;;15.30;99.90;;;;;;4954774;28;20031;-70
2023/10/17 10:51:13;;;;;;;87.32;82.40;;;15.30;99.90;;;;;;4958381;28;20042;-70
2023/10/17 10:53:42;;;;;;;132.00;124.90;;;15.40;99.90;;;;;;4970836;28;20039;-70
2023/10/17 10:56:11;;;;;;;117.15;111.32;;;15.40;99.90;;;;;;4954436;28;20047;-70
2023/10/17 10:58:47;;;;;;;107.45;101.88;;;15.40;99.90;;;;;;4959014;28;20499;-70
2023/10/17 11:01:14;;;;;;;120.07;113.78;;;15.50;99.90;;;;;;4952321;28;20039;-69
2023/10/17 11:03:41;;;;;;;113.75;107.57;;;15.60;99.90;;;;;;4955828;28;20023;-69
2023/10/17 11:06:10;;;;;;;96.68;91.78;;;15.70;99.90;;;;;;4961750;28;20023;-69
2023/10/17 11:08:37;;;;;;;104.15;98.57;;;15.80;99.90;;;;;;4969338;28;20062;-72
2023/10/17 11:11:04;;;;;;;103.25;97.72;;;15.90;99.90;;;;;;4970433;28;20065;-70
2023/10/17 11:13:38;;;;;;;97.05;91.88;;;16.00;99.90;;;;;;4964660;28;20480;-71
2023/10/17 11:16:07;;;;;;;131.82;124.97;;;16.00;99.90;;;;;;4963076;28;20069;-71
2023/10/17 11:18:43;;;;;;;143.75;136.18;;;16.10;99.90;;;;;;4975086;28;20487;-71
2023/10/17 11:21:09;;;;;;;120.57;114.30;;;16.20;99.90;;;;;;4967589;28;20085;-71
2023/10/17 11:23:39;;;;;;;118.32;111.72;;;16.30;99.90;;;;;;4964987;28;20042;-71
2023/10/17 11:26:14;;;;;;;125.03;118.55;;;16.30;99.90;;;;;;4972743;28;20035;-71
2023/10/17 11:28:46;;;;;;;115.28;109.28;;;16.40;99.90;;;;;;4974874;28;20047;-71
2023/10/17 11:31:22;;;;;;;117.97;111.82;;;16.60;99.90;;;;;;4970799;28;20039;-71
2023/10/17 11:34:06;;;;;;;123.97;117.75;;;16.60;99.90;;;;;;4963147;28;20500;-71
2023/10/17 11:36:46;;;;;;;112.78;107.00;;;16.80;99.90;;;;;;4969973;28;20046;-71
2023/10/17 11:39:15;;;;;;;120.38;113.95;;;16.80;99.90;;;;;;4960195;28;20508;-71
2023/10/17 11:41:54;;;;;;;109.95;104.18;;;16.80;99.90;;;;;;4961243;28;20039;-71
2023/10/17 11:44:23;;;;;;;131.20;124.38;;;16.90;99.90;;;;;;4968508;28;20058;-71
2023/10/17 11:47:02;;;;;;;148.70;141.23;;;16.90;99.90;;;;;;4973036;28;20045;-70
2023/10/17 11:49:33;;;;;;;124.15;117.93;;;17.00;99.90;;;;;;4970300;28;20051;-70
2023/10/17 11:52:09;;;;;;;114.18;108.22;;;17.10;99.90;;;;;;4965026;28;20507;-71
2023/10/17 11:54:55;;;;;;;124.63;118.25;;;17.10;99.90;;;;;;4961605;28;20046;-71
2023/10/17 11:57:25;;;;;;;138.07;130.80;;;17.20;99.90;;;;;;4963040;28;20510;-71
2023/10/17 11:59:58;;;;;;;124.97;118.60;;;17.20;99.90;;;;;;4962822;28;20043;-71
2023/10/17 12:02:25;;;;;;;129.25;122.63;;;17.20;99.90;;;;;;4959159;28;20051;-71
2023/10/17 12:04:51;;;;;;;136.00;129.13;;;17.30;99.90;;;;;;4961638;28;20035;-70
2023/10/17 12:07:19;;;;;;;115.65;109.70;;;17.40;99.90;;;;;;4955931;28;20058;-71
2023/10/17 12:09:45;;;;;;;112.82;106.90;;;17.40;99.90;;;;;;4956124;28;20046;-71
2023/10/17 12:12:12;;;;;;;124.47;118.28;;;17.50;99.90;;;;;;4955831;28;20035;-70
2023/10/17 12:14:38;;;;;;;111.80;105.95;;;17.60;99.90;;;;;;4956045;28;20078;-71
2023/10/17 12:17:08;;;;;;;133.80;127.38;;;17.70;99.90;;;;;;4970504;28;20043;-70
2023/10/17 12:19:34;;;;;;;111.70;106.10;;;17.70;99.90;;;;;;4974789;28;20053;-71
2023/10/17 12:22:00;;;;;;;113.03;107.13;;;17.70;99.90;;;;;;4960080;28;20047;-70
2023/10/17 12:24:29;;;;;;;115.05;109.10;;;17.80;99.90;;;;;;4953643;28;20051;-70
2023/10/17 12:26:55;;;;;;;106.82;101.43;;;17.90;99.90;;;;;;4969588;28;20030;-70
2023/10/17 12:29:26;;;;;;;102.85;97.50;;;17.90;99.90;;;;;;4975347;28;20379;-70
2023/10/17 12:31:59;;;;;;;104.57;98.75;;;18.00;99.90;;;;;;4973604;28;20038;-70
2023/10/17 12:34:27;;;;;;;113.18;107.10;;;18.10;99.90;;;;;;4973955;28;20058;-69
2023/10/17 12:36:56;;;;;;;106.72;101.40;;;18.20;99.90;;;;;;4960560;28;20485;-70
2023/10/17 12:39:23;;;;;;;107.07;101.68;;;18.30;99.90;;;;;;4955678;28;20047;-70
2023/10/17 12:41:50;;;;;;;130.60;124.05;;;18.50;99.90;;;;;;4955738;28;20424;-69
2023/10/17 12:44:18;;;;;;;137.15;129.95;;;18.60;99.90;;;;;;4971283;28;20047;-70
2023/10/17 12:46:44;;;;;;;132.20;125.47;;;18.70;99.90;;;;;;4961088;28;20511;-70
2023/10/17 12:49:11;;;;;;;140.57;133.70;;;18.80;99.90;;;;;;4956010;28;20046;-70
2023/10/17 12:51:41;;;;;;;149.23;142.05;;;18.90;99.90;;;;;;4955088;28;20527;-70
2023/10/17 12:54:08;;;;;;;145.48;138.32;;;19.00;99.90;;;;;;4968290;28;20058;-70
2023/10/17 12:56:39;;;;;;;161.30;153.25;;;19.10;99.90;;;;;;4962026;28;20031;-70
2023/10/17 12:59:05;;;;;;;140.13;133.15;;;19.10;99.90;;;;;;4953273;28;20050;-70
2023/10/17 13:01:32;;;;;;;151.15;143.73;;;19.10;99.90;;;;;;4955304;28;20047;-70
2023/10/17 13:03:58;;;;;;;129.48;123.03;;;19.10;99.90;;;;;;4954840;28;20043;-70
2023/10/17 13:06:27;;;;;;;133.68;127.00;;;19.10;99.90;;;;;;4954851;28;20027;-69
2023/10/17 13:08:56;;;;;;;168.07;159.68;;;19.10;99.90;;;;;;4954811;28;20093;-70
2023/10/17 13:11:24;;;;;;;142.02;134.98;;;19.10;99.90;;;;;;4954631;28;20401;-70
2023/10/17 13:13:50;;;;;;;125.18;118.85;;;19.10;99.90;;;;;;4964608;28;20042;-70
2023/10/17 13:16:16;;;;;;;107.60;101.88;;;19.10;99.90;;;;;;4972249;28;20643;-69
2023/10/17 13:18:42;;;;;;;158.57;150.75;;;19.10;99.90;;;;;;4972836;28;20046;-70
2023/10/17 13:21:14;;;;;;;126.50;119.97;;;19.20;99.90;;;;;;4973733;28;20051;-72
2023/10/17 13:23:40;;;;;;;152.73;145.18;;;19.20;99.90;;;;;;4973393;28;20045;-72
2023/10/17 13:26:11;;;;;;;110.05;104.45;;;19.30;99.90;;;;;;4966125;28;20039;-72
2023/10/17 13:28:38;;;;;;;138.82;131.85;;;19.30;99.90;;;;;;4956024;28;20047;-72
2023/10/17 13:31:11;;;;;;;148.45;140.90;;;19.40;99.90;;;;;;4972528;28;20026;-72
2023/10/17 13:33:38;;;;;;;140.88;133.98;;;19.50;99.90;;;;;;4973984;28;20054;-71
2023/10/17 13:36:10;;;;;;;151.02;143.45;;;19.50;99.90;;;;;;4972419;28;20023;-72
2023/10/17 13:38:40;;;;;;;152.48;144.57;;;19.60;99.90;;;;;;4969479;28;20058;-72
2023/10/17 13:41:10;;;;;;;129.10;122.65;;;19.60;99.90;;;;;;4970876;28;20487;-71
2023/10/17 13:43:38;;;;;;;129.23;122.65;;;19.60;99.90;;;;;;4961133;28;20475;-71
2023/10/17 13:46:08;;;;;;;127.63;120.93;;;19.70;99.90;;;;;;4964694;28;20399;-71
2023/10/17 13:48:36;;;;;;;135.10;128.52;;;19.80;99.90;;;;;;4968114;28;20041;-71
2023/10/17 13:51:04;;;;;;;132.55;126.00;;;19.80;99.90;;;;;;4971591;28;20035;-71
2023/10/17 13:53:30;;;;;;;141.30;134.45;;;19.80;99.90;;;;;;4964004;28;20047;-70
2023/10/17 13:55:56;;;;;;;139.98;132.57;;;19.90;99.90;;;;;;4965739;28;20488;-71
2023/10/17 13:58:22;;;;;;;140.43;132.98;;;19.90;99.90;;;;;;4968047;28;20035;-71
2023/10/17 14:00:51;;;;;;;140.00;133.10;;;20.00;99.90;;;;;;4972191;28;20057;-71
2023/10/17 14:03:17;;;;;;;142.07;134.82;;;20.00;99.90;;;;;;4968024;28;20066;-71
2023/10/17 14:05:47;;;;;;;153.55;145.80;;;20.00;99.90;;;;;;4968242;28;20042;-71
2023/10/17 14:08:17;;;;;;;142.32;135.23;;;20.10;99.90;;;;;;4967172;28;20055;-71
2023/10/17 14:10:44;;;;;;;145.32;138.07;;;20.10;99.90;;;;;;4953742;28;20389;-71
2023/10/17 14:13:12;;;;;;;151.02;143.40;;;20.20;99.90;;;;;;4965138;28;20054;-71
2023/10/17 14:15:39;;;;;;;162.73;154.80;;;20.20;99.90;;;;;;4959268;28;20054;-71
2023/10/17 14:18:14;;;;;;;164.48;156.30;;;20.20;99.90;;;;;;4954019;28;20039;-71
2023/10/17 14:21:04;;;;;;;164.65;156.13;;;20.30;99.90;;;;;;4962198;28;20031;-71
2023/10/17 14:23:32;;;;;;;166.48;157.93;;;20.30;99.90;;;;;;4968525;28;20054;-70
2023/10/17 14:26:07;;;;;;;196.88;187.15;;;20.40;99.90;;;;;;4972972;28;20228;-71
2023/10/17 14:28:34;;;;;;;188.52;179.18;;;20.50;99.90;;;;;;4969388;28;20043;-71
2023/10/17 14:31:04;;;;;;;224.57;213.30;;;20.50;99.90;;;;;;4959627;28;20368;-70
2023/10/17 14:33:33;;;;;;;225.98;214.90;;;20.60;99.90;;;;;;4957658;28;20035;-70
2023/10/17 14:36:05;;;;;;;286.08;272.33;;;20.70;99.90;;;;;;4972623;28;20415;-71
2023/10/17 14:38:34;;;;;;;283.38;269.50;;;20.70;99.90;;;;;;4971470;28;20511;-71
2023/10/17 14:41:10;;;;;;;281.95;267.92;;;20.80;99.90;;;;;;4965340;28;20032;-71
2023/10/17 14:43:36;;;;;;;273.42;259.98;;;20.70;99.90;;;;;;4953217;28;20058;-70
2023/10/17 14:46:02;;;;;;;302.98;287.92;;;20.70;99.90;;;;;;4953104;28;20031;-71
2023/10/17 14:48:30;;;;;;;741.08;479.17;;;20.70;99.90;;;;;;4956222;28;20046;-70
2023/10/17 14:50:56;;;;;;;274.17;260.65;;;20.70;99.90;;;;;;4968840;28;20040;-71
2023/10/17 14:53:22;;;;;;;291.38;276.92;;;20.70;99.90;;;;;;4957317;28;20027;-71
2023/10/17 14:55:58;;;;;;;291.42;277.10;;;20.70;99.90;;;;;;4956885;28;20031;-71
2023/10/17 14:58:24;;;;;;;298.88;284.20;;;20.60;99.90;;;;;;4957406;28;20039;-71
2023/10/17 15:00:55;;;;;;;264.02;251.18;;;20.60;99.90;;;;;;4956644;28;20031;-68
2023/10/17 15:03:21;;;;;;;;;;;20.50;99.90;;;;;;4958036;28;20051;-69
2023/10/17 15:05:47;;;;;;;232.80;221.20;;;20.50;99.90;;;;;;4970712;28;20402;-68
2023/10/17 15:08:14;;;;;;;279.35;265.63;;;20.40;99.90;;;;;;4956121;28;20054;-68
2023/10/17 15:10:40;;;;;;;283.25;269.52;;;20.40;99.90;;;;;;4973183;28;20031;-68
2023/10/17 15:13:11;;;;;;;1999.90;999.90;;;20.40;99.90;;;;;;4973796;28;20031;-68